createdAt,value
2023-03-04T00:01:17.085Z,20.27
2023-03-04T00:03:43.689Z,23.13
2023-03-04T00:06:10.408Z,19.70
2023-03-04T00:08:38.066Z,19.70
2023-03-04T00:11:04.919Z,20.83
2023-03-04T00:13:31.586Z,20.00
2023-03-04T00:15:58.267Z,18.92
2023-03-04T00:18:24.991Z,17.98
2023-03-04T00:20:51.633Z,18.95
2023-03-04T00:23:18.488Z,20.73
2023-03-04T00:25:45.141Z,19.48
2023-03-04T00:28:11.756Z,15.75
2023-03-04T00:30:38.394Z,17.42
2023-03-04T00:33:05.019Z,18.88
2023-03-04T00:35:31.672Z,15.35
2023-03-04T00:37:58.307Z,18.33
2023-03-04T00:40:24.942Z,16.85
2023-03-04T00:42:52.048Z,18.00
2023-03-04T00:45:19.025Z,15.60
2023-03-04T00:47:45.672Z,20.77
2023-03-04T00:50:12.489Z,15.98
2023-03-04T00:52:39.119Z,18.33
2023-03-04T00:55:06.682Z,16.20
2023-03-04T00:57:33.325Z,20.42
2023-03-04T01:00:00.020Z,13.65
2023-03-04T01:02:26.793Z,15.15
2023-03-04T01:04:53.525Z,19.65
2023-03-04T01:07:20.153Z,21.17
2023-03-04T01:09:46.837Z,15.40
2023-03-04T01:12:13.481Z,19.38
2023-03-04T01:14:40.097Z,16.15
2023-03-04T01:17:06.915Z,13.82
2023-03-04T01:19:33.577Z,17.27
2023-03-04T01:22:00.344Z,18.38
2023-03-04T01:24:27.158Z,19.17
2023-03-04T01:26:53.907Z,14.70
2023-03-04T01:29:20.639Z,15.70
2023-03-04T01:31:47.476Z,18.52
2023-03-04T01:34:14.158Z,13.52
2023-03-04T01:36:40.835Z,21.83
2023-03-04T01:39:07.470Z,15.23
2023-03-04T01:41:34.301Z,14.57
2023-03-04T01:44:02.517Z,12.90
2023-03-04T01:46:30.978Z,16.70
2023-03-04T01:48:58.362Z,20.80
2023-03-04T01:51:25.299Z,14.00
2023-03-04T01:53:54.772Z,13.15
2023-03-04T01:56:31.195Z,18.92
2023-03-04T01:59:19.146Z,15.50
2023-03-04T02:01:48.858Z,17.58
2023-03-04T02:04:17.650Z,17.52
2023-03-04T02:06:44.734Z,13.55
2023-03-04T02:09:12.092Z,18.50
2023-03-04T02:11:39.342Z,12.00
2023-03-04T02:14:07.118Z,18.08
2023-03-04T02:16:33.880Z,14.93
2023-03-04T02:19:00.833Z,12.90
2023-03-04T02:21:34.072Z,13.07
2023-03-04T02:24:05.573Z,16.23
2023-03-04T02:26:32.903Z,21.67
2023-03-04T02:29:00.953Z,16.80
2023-03-04T02:31:32.365Z,16.70
2023-03-04T02:34:03.115Z,10.57
2023-03-04T02:36:30.396Z,13.98
2023-03-04T02:39:02.299Z,19.48
2023-03-04T02:41:30.366Z,13.57
2023-03-04T02:43:57.116Z,15.48
2023-03-04T02:46:23.931Z,15.90
2023-03-04T02:48:51.834Z,14.55
2023-03-04T02:51:18.647Z,16.33
2023-03-04T02:53:45.422Z,16.52
2023-03-04T02:56:12.132Z,11.90
2023-03-04T02:58:40.124Z,13.80
2023-03-04T03:01:06.985Z,13.98
2023-03-04T03:03:33.669Z,19.00
2023-03-04T03:06:00.333Z,13.65
2023-03-04T03:08:27.081Z,12.80
2023-03-04T03:10:53.674Z,16.63
2023-03-04T03:13:20.403Z,12.10
2023-03-04T03:15:48.456Z,17.83
2023-03-04T03:18:17.279Z,16.80
2023-03-04T03:20:43.934Z,16.13
2023-03-04T03:23:10.632Z,14.80
2023-03-04T03:25:37.461Z,16.48
2023-03-04T03:28:04.334Z,13.93
2023-03-04T03:30:31.014Z,14.13
2023-03-04T03:32:57.976Z,11.48
2023-03-04T03:35:24.600Z,15.27
2023-03-04T03:37:51.277Z,14.82
2023-03-04T03:40:18.112Z,15.35
2023-03-04T03:42:45.022Z,15.60
2023-03-04T03:45:12.540Z,14.63
2023-03-04T03:47:39.377Z,10.02
2023-03-04T03:50:07.033Z,11.88
2023-03-04T03:52:33.735Z,12.68
2023-03-04T03:55:02.077Z,12.68
2023-03-04T03:57:29.666Z,19.02
2023-03-04T03:59:57.040Z,15.38
2023-03-04T04:02:23.912Z,13.40
2023-03-04T04:04:50.723Z,17.17
2023-03-04T04:07:17.931Z,17.15
2023-03-04T04:09:44.654Z,15.25
2023-03-04T04:12:14.556Z,12.50
2023-03-04T04:14:41.409Z,18.05
2023-03-04T04:17:08.449Z,11.38
2023-03-04T04:19:35.178Z,14.85
2023-03-04T04:22:02.842Z,11.70
2023-03-04T04:24:30.098Z,12.50
2023-03-04T04:26:57.428Z,14.40
2023-03-04T04:29:24.154Z,15.32
2023-03-04T04:31:51.070Z,14.00
2023-03-04T04:34:17.789Z,12.30
2023-03-04T04:36:44.539Z,12.63
2023-03-04T04:39:11.181Z,8.65
2023-03-04T04:41:40.694Z,12.50
2023-03-04T04:44:08.011Z,9.88
2023-03-04T04:46:34.766Z,12.73
2023-03-04T04:49:01.864Z,10.55
2023-03-04T04:51:28.907Z,9.68
2023-03-04T04:53:55.574Z,10.77
2023-03-04T04:56:26.262Z,11.07
2023-03-04T04:59:01.898Z,9.30
2023-03-04T05:01:29.031Z,10.60
2023-03-04T05:03:55.979Z,11.68
2023-03-04T05:06:24.714Z,12.93
2023-03-04T05:08:51.734Z,15.20
2023-03-04T05:11:19.422Z,9.43
2023-03-04T05:13:47.341Z,9.93
2023-03-04T05:16:14.665Z,15.65
2023-03-04T05:18:41.352Z,9.77
2023-03-04T05:21:08.440Z,9.52
2023-03-04T05:23:38.114Z,11.88
2023-03-04T05:26:06.540Z,13.48
2023-03-04T05:28:33.507Z,13.60
2023-03-04T05:31:00.607Z,11.57
2023-03-04T05:33:27.462Z,14.52
2023-03-04T05:35:55.079Z,12.30
2023-03-04T05:38:22.283Z,12.10
2023-03-04T05:40:49.325Z,11.23
2023-03-04T05:43:16.077Z,11.70
2023-03-04T05:45:42.971Z,7.93
2023-03-04T05:48:09.994Z,11.73
2023-03-04T05:50:36.698Z,15.52
2023-03-04T05:53:03.393Z,8.45
2023-03-04T05:55:30.168Z,12.40
2023-03-04T05:57:57.637Z,8.13
2023-03-04T06:00:25.300Z,13.50
2023-03-04T06:02:52.220Z,10.43
2023-03-04T06:05:19.630Z,9.55
2023-03-04T06:07:46.333Z,12.18
2023-03-04T06:10:15.630Z,11.40
2023-03-04T06:12:42.764Z,14.40
2023-03-04T06:15:10.504Z,12.13
2023-03-04T06:17:40.650Z,18.67
2023-03-04T06:20:10.143Z,14.80
2023-03-04T06:22:36.853Z,10.80
2023-03-04T06:25:03.907Z,11.05
2023-03-04T06:27:30.841Z,16.48
2023-03-04T06:29:57.752Z,10.95
2023-03-04T06:32:24.565Z,8.25
2023-03-04T06:34:51.348Z,13.00
2023-03-04T06:37:18.079Z,9.07
2023-03-04T06:39:45.591Z,11.90
2023-03-04T06:42:13.250Z,9.43
2023-03-04T06:44:40.082Z,13.82
2023-03-04T06:47:07.079Z,14.60
2023-03-04T06:49:33.854Z,10.75
2023-03-04T06:52:00.761Z,11.90
2023-03-04T06:54:27.550Z,12.43
2023-03-04T06:56:54.176Z,10.70
2023-03-04T06:59:20.860Z,11.27
2023-03-04T07:01:47.505Z,9.60
2023-03-04T07:04:14.744Z,8.48
2023-03-04T07:06:41.440Z,10.00
2023-03-04T07:09:08.115Z,12.82
2023-03-04T07:11:34.965Z,9.23
2023-03-04T07:14:01.603Z,10.63
2023-03-04T07:16:28.446Z,9.00
2023-03-04T07:18:55.598Z,11.60
2023-03-04T07:21:22.292Z,8.15
2023-03-04T07:23:48.983Z,8.93
2023-03-04T07:26:16.297Z,11.93
2023-03-04T07:28:43.978Z,7.22
2023-03-04T07:31:21.820Z,12.10
2023-03-04T07:33:48.741Z,8.88
2023-03-04T07:36:15.828Z,9.10
2023-03-04T07:38:47.248Z,11.38
2023-03-04T07:41:13.955Z,8.63
2023-03-04T07:43:40.653Z,8.63
2023-03-04T07:46:07.831Z,7.88
2023-03-04T07:48:34.561Z,12.07
2023-03-04T07:51:14.875Z,10.25
2023-03-04T07:53:44.031Z,8.38
2023-03-04T07:56:15.488Z,11.77
2023-03-04T07:58:42.190Z,11.02
2023-03-04T08:01:14.309Z,8.10
2023-03-04T08:03:41.504Z,10.77
2023-03-04T08:06:10.700Z,7.53
2023-03-04T08:08:38.062Z,6.65
2023-03-04T08:11:09.594Z,6.82
2023-03-04T08:13:36.648Z,8.95
2023-03-04T08:16:04.409Z,10.55
2023-03-04T08:18:31.425Z,7.68
2023-03-04T08:20:58.065Z,6.43
2023-03-04T08:23:24.935Z,7.78
2023-03-04T08:25:52.231Z,7.03
2023-03-04T08:28:19.163Z,9.60
2023-03-04T08:30:52.131Z,8.18
2023-03-04T08:33:18.898Z,6.88
2023-03-04T08:35:45.659Z,9.18
2023-03-04T08:38:12.447Z,7.22
2023-03-04T08:40:39.149Z,7.50
2023-03-04T08:43:05.837Z,8.75
2023-03-04T08:45:32.478Z,5.25
2023-03-04T08:47:59.171Z,5.03
2023-03-04T08:50:27.369Z,9.55
2023-03-04T08:52:54.033Z,3.40
2023-03-04T08:55:20.703Z,6.30
2023-03-04T08:57:47.384Z,4.13
2023-03-04T09:00:14.523Z,6.00
2023-03-04T09:02:41.249Z,4.10
2023-03-04T09:05:08.466Z,4.25
2023-03-04T09:07:35.129Z,7.78
2023-03-04T09:10:01.902Z,5.22
2023-03-04T09:12:28.570Z,5.50
2023-03-04T09:15:09.843Z,5.30
2023-03-04T09:17:38.030Z,3.25
2023-03-04T09:20:05.841Z,7.65
2023-03-04T09:22:32.470Z,3.88
2023-03-04T09:24:59.133Z,4.45
2023-03-04T09:27:25.858Z,6.60
2023-03-04T09:29:52.585Z,7.43
2023-03-04T09:32:19.338Z,3.45
2023-03-04T09:34:46.062Z,4.07
2023-03-04T09:37:12.810Z,7.18
2023-03-04T09:39:39.435Z,4.40
2023-03-04T09:42:09.168Z,5.75
2023-03-04T09:44:43.168Z,2.67
2023-03-04T09:47:16.433Z,4.05
2023-03-04T09:49:48.293Z,8.43
2023-03-04T09:52:21.557Z,5.45
2023-03-04T09:55:06.015Z,4.97
2023-03-04T09:57:38.348Z,5.45
2023-03-04T10:00:10.284Z,6.40
2023-03-04T10:02:50.957Z,2.58
2023-03-04T10:05:21.566Z,4.70
2023-03-04T10:07:58.614Z,4.60
2023-03-04T10:10:39.389Z,3.60
2023-03-04T10:13:16.354Z,5.18
2023-03-04T10:15:47.068Z,5.25
2023-03-04T10:18:32.652Z,4.03
2023-03-04T10:21:08.430Z,3.47
2023-03-04T10:23:38.605Z,4.60
2023-03-04T10:26:14.201Z,5.85
2023-03-04T10:28:41.780Z,6.60
2023-03-04T10:31:08.390Z,6.78
2023-03-04T10:33:37.977Z,5.18
2023-03-04T10:36:28.985Z,4.85
2023-03-04T10:39:13.721Z,4.35
2023-03-04T10:41:46.275Z,5.97
2023-03-04T10:46:47.097Z,3.53
2023-03-04T10:49:20.035Z,2.50
2023-03-04T10:51:51.854Z,3.28
2023-03-04T10:54:28.723Z,4.30
2023-03-04T10:57:13.052Z,5.18
2023-03-04T10:59:58.031Z,4.25
2023-03-04T11:02:38.591Z,4.75
2023-03-04T11:05:24.894Z,4.47
2023-03-04T11:07:58.334Z,2.33
2023-03-04T11:10:37.091Z,2.92
2023-03-04T11:13:12.981Z,3.63
2023-03-04T11:16:01.864Z,2.70
2023-03-04T11:18:43.615Z,3.10
2023-03-04T11:21:23.188Z,4.25
2023-03-04T11:24:03.070Z,6.43
2023-03-04T11:26:37.614Z,9.73
2023-03-04T11:29:31.587Z,5.40
2023-03-04T11:32:06.199Z,3.30
2023-03-04T11:35:06.507Z,3.80
2023-03-04T11:37:49.234Z,2.30
2023-03-04T11:40:50.518Z,2.20
2023-03-04T11:43:23.268Z,3.88
2023-03-04T11:46:08.729Z,2.22
2023-03-04T11:49:01.936Z,2.47
2023-03-04T11:51:58.065Z,3.25
2023-03-04T11:54:43.688Z,4.05
2023-03-04T11:57:42.592Z,2.10
2023-03-04T12:00:30.953Z,2.25
2023-03-04T12:03:27.623Z,3.08
2023-03-04T12:06:30.184Z,3.20
2023-03-04T12:09:15.108Z,3.85
2023-03-04T12:12:29.874Z,2.05
2023-03-04T12:15:08.135Z,3.72
2023-03-04T12:17:46.585Z,2.83
2023-03-04T12:20:22.069Z,3.45
2023-03-04T12:23:11.525Z,2.78
2023-03-04T12:25:38.192Z,2.60
2023-03-04T12:28:27.649Z,4.13
2023-03-04T12:31:21.142Z,4.20
2023-03-04T12:34:05.947Z,2.05
2023-03-04T12:37:10.227Z,4.30
2023-03-04T12:42:26.504Z,2.60
2023-03-04T12:45:16.844Z,2.08
2023-03-04T12:48:18.914Z,1.85
2023-03-04T12:51:00.125Z,3.90
2023-03-04T12:53:41.813Z,2.53
2023-03-04T12:56:25.366Z,3.67
2023-03-04T12:58:52.962Z,2.75
2023-03-04T13:01:30.598Z,3.33
2023-03-04T13:04:18.596Z,4.00
2023-03-04T13:07:13.730Z,3.10
2023-03-04T13:10:01.326Z,4.30
2023-03-04T13:12:28.047Z,1.80
2023-03-04T13:15:09.799Z,2.50
2023-03-04T13:17:38.139Z,2.60
2023-03-04T13:20:33.775Z,3.33
2023-03-04T13:23:14.181Z,4.00
2023-03-04T13:25:45.139Z,4.25
2023-03-04T13:28:11.728Z,3.10
2023-03-04T13:30:38.419Z,4.97
2023-03-04T13:33:11.261Z,4.47
2023-03-04T13:35:49.828Z,3.70
2023-03-04T13:38:32.295Z,4.43
2023-03-04T13:41:17.442Z,5.05
2023-03-04T13:43:45.143Z,5.15
2023-03-04T13:46:21.151Z,4.10
2023-03-04T13:48:50.866Z,6.03
2023-03-04T13:51:30.148Z,7.97
2023-03-04T13:54:08.106Z,5.43
2023-03-04T13:56:37.484Z,6.43
2023-03-04T13:59:07.658Z,5.78
2023-03-04T14:01:35.581Z,3.40
2023-03-04T14:04:13.587Z,4.22
2023-03-04T14:06:45.488Z,6.85
2023-03-04T14:09:20.532Z,6.00
2023-03-04T14:11:48.621Z,5.65
2023-03-04T14:14:20.238Z,6.30
2023-03-04T14:16:57.778Z,4.70
2023-03-04T14:19:35.916Z,5.82
2023-03-04T14:22:02.622Z,5.70
2023-03-04T14:24:30.884Z,5.45
2023-03-04T14:27:13.859Z,6.30
2023-03-04T14:29:40.632Z,6.03
2023-03-04T14:32:08.676Z,10.18
2023-03-04T14:34:39.611Z,3.65
2023-03-04T14:37:22.681Z,7.30
2023-03-04T14:39:57.515Z,7.97
2023-03-04T14:42:30.033Z,5.93
2023-03-04T14:44:59.943Z,5.10
2023-03-04T14:47:36.180Z,9.27
2023-03-04T14:50:06.683Z,6.43
2023-03-04T14:52:42.672Z,6.30
2023-03-04T14:55:15.368Z,5.47
2023-03-04T14:57:44.533Z,6.20
2023-03-04T15:00:20.583Z,7.35
2023-03-04T15:02:56.395Z,6.90
2023-03-04T15:05:43.353Z,8.02
2023-03-04T15:08:38.270Z,5.05
2023-03-04T15:11:07.190Z,4.55
2023-03-04T15:13:45.192Z,7.22
2023-03-04T15:16:14.304Z,5.75
2023-03-04T15:18:55.208Z,4.88
2023-03-04T15:21:21.928Z,6.13
2023-03-04T15:23:48.565Z,10.20
2023-03-04T15:26:15.266Z,6.53
2023-03-04T15:28:42.886Z,9.55
2023-03-04T15:31:24.199Z,6.97
2023-03-04T15:33:50.940Z,7.97
2023-03-04T15:36:23.192Z,6.00
2023-03-04T15:38:52.329Z,6.40
2023-03-04T15:41:25.356Z,7.88
2023-03-04T15:43:53.279Z,7.85
2023-03-04T15:46:20.368Z,8.05
2023-03-04T15:48:47.648Z,4.63
2023-03-04T15:51:20.952Z,11.38
2023-03-04T15:53:56.249Z,7.30
2023-03-04T15:56:27.148Z,8.63
2023-03-04T15:59:00.674Z,6.22
2023-03-04T16:01:28.058Z,6.72
2023-03-04T16:03:54.692Z,6.60
2023-03-04T16:06:23.747Z,6.13
2023-03-04T16:08:52.194Z,5.13
2023-03-04T16:11:41.669Z,11.20
2023-03-04T16:14:11.332Z,8.13
2023-03-04T16:16:38.040Z,9.45
2023-03-04T16:19:04.728Z,6.80
2023-03-04T16:21:31.420Z,6.72
2023-03-04T16:23:58.358Z,7.13
2023-03-04T16:26:27.240Z,7.85
2023-03-04T16:28:54.074Z,3.75
2023-03-04T16:31:21.838Z,3.80
2023-03-04T16:33:49.135Z,5.13
2023-03-04T16:36:22.385Z,6.63
2023-03-04T16:38:50.214Z,4.28
2023-03-04T16:41:20.308Z,7.45
2023-03-04T16:43:46.937Z,5.32
2023-03-04T16:46:14.131Z,4.57
2023-03-04T16:48:40.932Z,7.50
2023-03-04T16:51:16.694Z,7.80
2023-03-04T16:53:48.641Z,5.85
2023-03-04T16:56:18.067Z,5.47
2023-03-04T16:58:44.968Z,7.35
2023-03-04T17:01:20.347Z,4.65
2023-03-04T17:03:47.319Z,10.50
2023-03-04T17:06:14.971Z,5.50
2023-03-04T17:08:42.059Z,5.65
2023-03-04T17:11:12.642Z,5.18
2023-03-04T17:13:39.515Z,7.57
2023-03-04T17:16:06.401Z,3.83
2023-03-04T17:18:34.282Z,7.82
2023-03-04T17:21:06.209Z,4.63
2023-03-04T17:23:33.343Z,6.57
2023-03-04T17:25:59.985Z,6.72
2023-03-04T17:28:27.210Z,2.83
2023-03-04T17:30:54.065Z,4.88
2023-03-04T17:33:21.469Z,5.95
2023-03-04T17:35:48.238Z,5.75
2023-03-04T17:38:15.709Z,3.17
2023-03-04T17:40:42.870Z,6.35
2023-03-04T17:43:12.337Z,7.70
2023-03-04T17:45:40.592Z,6.32
2023-03-04T17:48:08.289Z,9.90
2023-03-04T17:50:35.091Z,6.93
2023-03-04T17:53:01.730Z,6.15
2023-03-04T17:55:28.394Z,6.95
2023-03-04T17:57:57.466Z,5.20
2023-03-04T18:00:24.355Z,4.88
2023-03-04T18:02:51.050Z,6.07
2023-03-04T18:05:17.946Z,7.18
2023-03-04T18:07:44.598Z,7.15
2023-03-04T18:10:11.626Z,7.25
2023-03-04T18:12:38.282Z,5.97
2023-03-04T18:15:05.490Z,4.60
2023-03-04T18:17:32.255Z,8.05
2023-03-04T18:19:58.936Z,7.30
2023-03-04T18:22:25.682Z,2.38
2023-03-04T18:24:52.372Z,5.93
2023-03-04T18:27:22.028Z,4.28
2023-03-04T18:29:48.757Z,5.10
2023-03-04T18:32:15.569Z,6.53
2023-03-04T18:34:42.358Z,5.22
2023-03-04T18:37:09.083Z,2.97
2023-03-04T18:39:36.086Z,5.00
2023-03-04T18:42:02.844Z,4.20
2023-03-04T18:44:29.520Z,3.70
2023-03-04T18:46:58.214Z,4.95
2023-03-04T18:49:25.015Z,4.90
2023-03-04T18:51:51.756Z,5.30
2023-03-04T18:54:18.644Z,3.90
2023-03-04T18:56:50.279Z,8.50
2023-03-04T18:59:40.160Z,5.35
2023-03-04T19:02:27.059Z,5.82
2023-03-04T19:04:57.245Z,5.00
2023-03-04T19:07:23.862Z,5.00
2023-03-04T19:09:50.733Z,5.20
2023-03-04T19:12:17.433Z,5.72
2023-03-04T19:14:44.069Z,6.57
2023-03-04T19:17:10.792Z,7.57
2023-03-04T19:19:37.456Z,9.05
2023-03-04T19:22:04.165Z,4.05
2023-03-04T19:24:30.755Z,8.38
2023-03-04T19:26:57.425Z,3.92
2023-03-04T19:29:24.117Z,4.38
2023-03-04T19:31:51.038Z,7.00
2023-03-04T19:34:17.721Z,5.00
2023-03-04T19:36:44.417Z,5.50
2023-03-04T19:39:14.826Z,5.10
2023-03-04T19:41:44.884Z,7.05
2023-03-04T19:44:12.119Z,4.90
2023-03-04T19:46:38.818Z,4.63
2023-03-04T19:49:06.025Z,4.05
2023-03-04T19:51:33.074Z,6.30
2023-03-04T19:54:00.319Z,5.82
2023-03-04T19:56:26.979Z,3.70
2023-03-04T19:58:57.170Z,6.72
2023-03-04T20:01:30.043Z,4.32
2023-03-04T20:04:06.138Z,6.88
2023-03-04T20:06:36.337Z,7.20
2023-03-04T20:09:03.483Z,7.32
2023-03-04T20:11:31.134Z,9.98
2023-03-04T20:13:58.759Z,7.60
2023-03-04T20:16:26.127Z,8.05
2023-03-04T20:18:53.238Z,7.43
2023-03-04T20:21:20.233Z,3.53
2023-03-04T20:23:47.087Z,5.28
2023-03-04T20:26:13.726Z,10.90
2023-03-04T20:28:40.386Z,5.78
2023-03-04T20:31:11.756Z,7.55
2023-03-04T20:33:38.536Z,9.75
2023-03-04T20:36:05.558Z,4.10
2023-03-04T20:38:32.190Z,5.82
2023-03-04T20:41:08.176Z,5.22
2023-03-04T20:43:35.029Z,5.55
2023-03-04T20:46:43.217Z,4.95
2023-03-04T20:49:16.164Z,4.95
2023-03-04T20:51:43.014Z,5.13
2023-03-04T20:54:10.118Z,3.00
2023-03-04T20:56:37.756Z,2.95
2023-03-04T20:59:06.848Z,5.13
2023-03-04T21:01:33.733Z,3.38
2023-03-04T21:04:01.347Z,4.38
2023-03-04T21:06:29.119Z,4.07
2023-03-04T21:08:57.105Z,3.13
2023-03-04T21:11:24.343Z,3.38
2023-03-04T21:13:57.576Z,4.20
2023-03-04T21:16:27.099Z,7.25
2023-03-04T21:18:53.883Z,4.40
2023-03-04T21:21:24.484Z,9.27
2023-03-04T21:23:53.463Z,6.82
2023-03-04T21:26:22.216Z,6.40
2023-03-04T21:28:49.833Z,6.80
2023-03-04T21:31:21.749Z,3.83
2023-03-04T21:33:48.849Z,8.70
2023-03-04T21:36:15.789Z,5.55
2023-03-04T21:38:44.250Z,5.00
2023-03-04T21:41:15.988Z,6.60
2023-03-04T21:43:43.086Z,6.10
2023-03-04T21:46:10.458Z,3.78
2023-03-04T21:48:37.494Z,3.17
2023-03-04T21:51:07.376Z,10.05
2023-03-04T21:53:35.586Z,7.03
2023-03-04T21:56:03.153Z,5.00
2023-03-04T21:58:30.423Z,3.60
2023-03-04T22:00:59.026Z,2.30
2023-03-04T22:03:27.118Z,3.60
2023-03-04T22:05:53.955Z,5.25
2023-03-04T22:08:21.305Z,4.38
2023-03-04T22:10:48.325Z,4.43
2023-03-04T22:13:16.604Z,7.80
2023-03-04T22:15:44.944Z,4.20
2023-03-04T22:18:13.925Z,2.38
2023-03-04T22:20:43.036Z,4.30
2023-03-04T22:23:10.455Z,6.18
2023-03-04T22:25:39.105Z,3.53
2023-03-04T22:28:06.917Z,3.85
2023-03-04T22:30:34.745Z,6.75
2023-03-04T22:33:01.514Z,5.03
2023-03-04T22:35:28.288Z,4.60
2023-03-04T22:37:55.022Z,1.98
2023-03-04T22:40:21.718Z,5.03
2023-03-04T22:42:49.572Z,4.30
2023-03-04T22:45:18.098Z,9.13
2023-03-04T22:47:52.178Z,2.25
2023-03-04T22:50:20.695Z,4.03
2023-03-04T22:52:47.927Z,2.55
2023-03-04T22:55:16.936Z,5.95
2023-03-04T22:57:43.759Z,5.80
2023-03-04T23:00:24.285Z,5.05
2023-03-04T23:02:51.577Z,5.90
2023-03-04T23:05:22.077Z,4.55
2023-03-04T23:07:50.612Z,4.90
2023-03-04T23:10:23.677Z,4.78
2023-03-04T23:12:52.622Z,4.53
2023-03-04T23:15:20.092Z,6.13
2023-03-04T23:17:47.407Z,6.00
2023-03-04T23:20:17.836Z,4.47
2023-03-04T23:22:45.809Z,4.35
2023-03-04T23:25:13.114Z,5.90
2023-03-04T23:27:40.885Z,5.30
2023-03-04T23:30:11.868Z,4.50
2023-03-04T23:32:38.532Z,6.63
2023-03-04T23:35:05.585Z,3.10
2023-03-04T23:37:32.325Z,5.45
2023-03-04T23:39:59.018Z,7.45
2023-03-04T23:42:25.655Z,3.70
2023-03-04T23:44:52.332Z,4.45
2023-03-04T23:47:19.101Z,4.55
2023-03-04T23:49:45.717Z,4.80
2023-03-04T23:52:12.321Z,4.88
2023-03-04T23:54:38.997Z,4.45
2023-03-04T23:57:08.738Z,3.45
2023-03-04T23:59:38.232Z,4.78
